createdAt,value
2022-10-31T00:01:01.304Z,16.00
2022-10-31T00:03:28.646Z,16.00
2022-10-31T00:05:55.478Z,16.00
2022-10-31T00:08:22.766Z,15.90
2022-10-31T00:10:49.657Z,15.90
2022-10-31T00:13:16.726Z,15.90
2022-10-31T00:15:45.562Z,15.80
2022-10-31T00:18:12.468Z,15.80
2022-10-31T00:20:40.199Z,15.70
2022-10-31T00:23:07.571Z,15.80
2022-10-31T00:25:36.818Z,15.70
2022-10-31T00:28:04.134Z,15.70
2022-10-31T00:30:31.709Z,15.70
2022-10-31T00:33:00.210Z,15.70
2022-10-31T00:35:27.506Z,15.60
2022-10-31T00:37:54.321Z,15.60
2022-10-31T00:40:21.463Z,15.60
2022-10-31T00:42:48.290Z,15.60
2022-10-31T00:45:15.596Z,15.60
2022-10-31T00:47:42.419Z,15.50
2022-10-31T00:50:10.775Z,15.50
2022-10-31T00:52:37.591Z,15.50
2022-10-31T00:55:05.094Z,15.50
2022-10-31T00:57:31.942Z,15.50
2022-10-31T00:59:59.083Z,15.40
2022-10-31T01:02:26.296Z,15.40
2022-10-31T01:04:53.686Z,15.40
2022-10-31T01:07:21.919Z,15.30
2022-10-31T01:09:49.244Z,15.30
2022-10-31T01:12:16.159Z,15.30
2022-10-31T01:14:46.089Z,15.20
2022-10-31T01:17:13.082Z,15.20
2022-10-31T01:19:40.671Z,15.20
2022-10-31T01:22:07.503Z,15.10
2022-10-31T01:24:36.045Z,15.10
2022-10-31T01:27:03.123Z,15.10
2022-10-31T01:29:30.303Z,15.00
2022-10-31T01:31:57.140Z,15.00
2022-10-31T01:34:24.300Z,15.00
2022-10-31T01:36:52.211Z,15.00
2022-10-31T01:39:23.339Z,15.00
2022-10-31T01:41:53.528Z,15.00
2022-10-31T01:44:54.125Z,15.00
2022-10-31T01:47:28.724Z,15.00
2022-10-31T01:49:58.592Z,15.00
2022-10-31T01:52:28.683Z,15.00
2022-10-31T01:55:00.105Z,15.00
2022-10-31T01:57:30.093Z,15.00
2022-10-31T02:00:01.709Z,15.10
2022-10-31T02:02:31.185Z,15.00
2022-10-31T02:05:00.343Z,15.00
2022-10-31T02:07:32.706Z,15.00
2022-10-31T02:10:01.262Z,15.00
2022-10-31T02:12:31.159Z,15.00
2022-10-31T02:14:59.086Z,15.00
2022-10-31T02:17:26.176Z,15.00
2022-10-31T02:19:57.769Z,15.00
2022-10-31T02:22:29.009Z,15.00
2022-10-31T02:25:24.735Z,14.90
2022-10-31T02:28:12.309Z,14.90
2022-10-31T02:30:47.239Z,15.00
2022-10-31T02:33:24.442Z,14.90
2022-10-31T02:35:58.288Z,14.90
2022-10-31T02:38:37.525Z,14.90
2022-10-31T02:41:11.137Z,15.00
2022-10-31T02:43:44.665Z,15.00
2022-10-31T02:46:18.956Z,15.00
2022-10-31T02:48:49.370Z,15.00
2022-10-31T02:51:17.453Z,15.10
2022-10-31T02:53:44.755Z,15.00
2022-10-31T02:56:14.107Z,15.10
2022-10-31T02:58:45.040Z,15.10
2022-10-31T03:01:27.767Z,15.10
2022-10-31T03:04:24.531Z,15.10
2022-10-31T03:06:59.713Z,15.10
2022-10-31T03:09:33.784Z,15.10
2022-10-31T03:12:09.434Z,15.20
2022-10-31T03:14:42.278Z,15.20
2022-10-31T03:17:15.450Z,15.20
2022-10-31T03:19:47.190Z,15.20
2022-10-31T03:22:20.309Z,15.20
2022-10-31T03:24:52.207Z,15.20
2022-10-31T03:27:23.032Z,15.20
2022-10-31T03:29:51.907Z,15.30
2022-10-31T03:32:23.385Z,15.20
2022-10-31T03:34:54.318Z,15.20
2022-10-31T03:37:26.411Z,15.20
2022-10-31T03:39:56.311Z,15.10
2022-10-31T03:46:30.712Z,15.10
2022-10-31T03:48:59.238Z,15.10
2022-10-31T03:51:32.394Z,15.00
2022-10-31T03:54:05.115Z,15.00
2022-10-31T03:56:35.919Z,14.90
2022-10-31T03:59:07.219Z,14.90
2022-10-31T04:01:40.247Z,14.90
2022-10-31T04:04:08.813Z,14.90
2022-10-31T04:06:36.986Z,14.90
2022-10-31T04:09:07.588Z,14.80
2022-10-31T04:11:41.827Z,14.80
2022-10-31T04:14:10.335Z,14.80
2022-10-31T04:16:37.561Z,14.80
2022-10-31T04:19:05.064Z,14.80
2022-10-31T04:21:32.167Z,14.80
2022-10-31T04:23:59.459Z,14.80
2022-10-31T04:26:27.734Z,14.80
2022-10-31T04:28:54.937Z,14.80
2022-10-31T04:31:21.911Z,14.90
2022-10-31T04:33:49.227Z,14.70
2022-10-31T04:36:16.131Z,14.70
2022-10-31T04:38:43.372Z,14.70
2022-10-31T04:41:10.338Z,14.70
2022-10-31T04:43:39.013Z,14.70
2022-10-31T04:46:06.171Z,14.60
2022-10-31T04:48:33.494Z,14.60
2022-10-31T04:51:01.453Z,14.60
2022-10-31T04:53:28.904Z,14.60
2022-10-31T04:55:55.903Z,14.60
2022-10-31T04:58:23.203Z,14.60
2022-10-31T05:00:54.224Z,14.50
2022-10-31T05:03:21.576Z,14.60
2022-10-31T05:05:48.853Z,14.50
2022-10-31T05:08:16.267Z,14.50
2022-10-31T05:10:43.259Z,14.50
2022-10-31T05:13:10.832Z,14.40
2022-10-31T05:15:37.803Z,14.40
2022-10-31T05:18:06.308Z,14.40
2022-10-31T05:20:33.697Z,14.40
2022-10-31T05:23:01.307Z,14.50
2022-10-31T05:25:30.290Z,14.40
2022-10-31T05:27:58.273Z,14.40
2022-10-31T05:30:28.558Z,14.40
2022-10-31T05:32:55.829Z,14.40
2022-10-31T05:35:25.891Z,14.30
2022-10-31T05:37:53.270Z,14.40
2022-10-31T05:40:21.718Z,14.30
2022-10-31T05:42:52.217Z,14.30
2022-10-31T05:45:20.280Z,14.20
2022-10-31T05:47:52.458Z,14.20
2022-10-31T05:50:19.382Z,14.20
2022-10-31T05:52:48.004Z,14.20
2022-10-31T05:55:15.188Z,14.20
2022-10-31T05:57:42.384Z,14.20
2022-10-31T06:00:10.345Z,14.20
2022-10-31T06:02:37.231Z,14.10
2022-10-31T06:05:04.757Z,14.10
2022-10-31T06:07:35.061Z,14.10
2022-10-31T06:10:05.647Z,14.00
2022-10-31T06:12:33.459Z,14.10
2022-10-31T06:15:00.301Z,14.10
2022-10-31T06:17:27.636Z,14.10
2022-10-31T06:19:54.474Z,14.10
2022-10-31T06:22:21.350Z,14.20
2022-10-31T06:24:48.245Z,14.10
2022-10-31T06:27:17.005Z,14.10
2022-10-31T06:29:43.925Z,14.10
2022-10-31T06:32:12.753Z,14.10
2022-10-31T06:34:39.805Z,14.10
2022-10-31T06:37:08.087Z,14.00
2022-10-31T06:39:35.258Z,14.10
2022-10-31T06:42:02.808Z,14.00
2022-10-31T06:44:31.458Z,14.00
2022-10-31T06:46:58.804Z,13.90
2022-10-31T06:49:25.721Z,13.90
2022-10-31T06:51:53.031Z,13.90
2022-10-31T06:54:20.060Z,13.80
2022-10-31T06:56:48.417Z,13.90
2022-10-31T06:59:15.739Z,13.90
2022-10-31T07:01:44.618Z,14.00
2022-10-31T07:04:12.340Z,13.90
2022-10-31T07:06:39.384Z,14.00
2022-10-31T07:09:06.656Z,14.00
2022-10-31T07:11:34.049Z,14.10
2022-10-31T07:14:00.963Z,14.10
2022-10-31T07:16:28.306Z,14.20
2022-10-31T07:18:56.513Z,14.20
2022-10-31T07:21:23.761Z,14.30
2022-10-31T07:23:50.672Z,14.40
2022-10-31T07:26:17.963Z,14.40
2022-10-31T07:28:46.557Z,14.50
2022-10-31T07:31:13.708Z,14.50
2022-10-31T07:33:40.596Z,14.40
2022-10-31T07:36:09.602Z,14.40
2022-10-31T07:38:36.478Z,14.40
2022-10-31T07:41:03.404Z,14.40
2022-10-31T07:43:30.281Z,14.40
2022-10-31T07:45:57.567Z,14.40
2022-10-31T07:48:24.445Z,14.50
2022-10-31T07:50:51.416Z,14.60
2022-10-31T07:53:20.173Z,14.60
2022-10-31T07:55:47.073Z,14.60
2022-10-31T07:58:15.736Z,14.60
2022-10-31T08:00:44.800Z,14.60
2022-10-31T08:03:13.428Z,14.70
2022-10-31T08:05:42.058Z,14.70
2022-10-31T08:08:09.779Z,14.70
2022-10-31T08:10:38.463Z,14.70
2022-10-31T08:13:07.910Z,14.70
2022-10-31T08:15:38.026Z,14.70
2022-10-31T08:18:05.986Z,14.70
2022-10-31T08:20:33.146Z,14.80
2022-10-31T08:23:02.188Z,14.80
2022-10-31T08:25:33.741Z,14.90
2022-10-31T08:28:06.579Z,14.90
2022-10-31T08:30:35.725Z,15.00
2022-10-31T08:33:04.439Z,15.00
2022-10-31T08:35:32.012Z,15.00
2022-10-31T08:38:00.289Z,15.00
2022-10-31T08:40:29.101Z,15.10
2022-10-31T08:43:00.715Z,15.10
2022-10-31T08:45:29.868Z,15.10
2022-10-31T08:48:01.751Z,15.10
2022-10-31T08:50:30.671Z,15.20
2022-10-31T08:53:06.126Z,15.30
2022-10-31T08:55:34.763Z,15.30
2022-10-31T08:58:02.367Z,15.30
2022-10-31T09:00:30.697Z,15.40
2022-10-31T09:02:58.113Z,15.50
2022-10-31T09:05:25.741Z,15.50
2022-10-31T09:07:55.843Z,15.50
2022-10-31T09:10:22.790Z,15.60
2022-10-31T09:12:55.905Z,15.70
2022-10-31T09:15:22.821Z,16.00
2022-10-31T09:17:51.729Z,15.90
2022-10-31T09:20:19.080Z,15.90
2022-10-31T09:22:46.342Z,15.90
2022-10-31T09:25:13.958Z,16.00
2022-10-31T09:27:41.130Z,15.90
2022-10-31T09:30:09.223Z,15.80
2022-10-31T09:32:36.384Z,15.80
2022-10-31T09:35:05.214Z,15.80
2022-10-31T09:37:32.425Z,15.80
2022-10-31T09:39:59.310Z,15.90
2022-10-31T09:42:44.649Z,15.90
2022-10-31T09:45:17.214Z,16.00
2022-10-31T09:48:02.608Z,16.00
2022-10-31T09:50:36.903Z,16.20
2022-10-31T09:53:11.975Z,16.30
2022-10-31T09:55:43.459Z,16.40
2022-10-31T09:58:17.675Z,16.40
2022-10-31T10:00:44.975Z,16.60
2022-10-31T10:03:20.805Z,16.70
2022-10-31T10:05:56.029Z,16.80
2022-10-31T10:08:28.056Z,17.10
2022-10-31T10:11:01.276Z,17.30
2022-10-31T10:13:41.361Z,17.60
2022-10-31T10:16:17.517Z,17.80
2022-10-31T10:18:56.095Z,18.20
2022-10-31T10:21:33.684Z,18.30
2022-10-31T10:24:11.450Z,18.30
2022-10-31T10:26:41.532Z,18.40
2022-10-31T10:29:24.189Z,18.40
2022-10-31T10:31:55.001Z,18.60
2022-10-31T10:34:26.965Z,18.40
2022-10-31T10:36:59.298Z,18.50
2022-10-31T10:39:31.847Z,18.70
2022-10-31T10:42:19.419Z,18.80
2022-10-31T10:45:07.433Z,18.80
2022-10-31T10:47:42.397Z,18.50
2022-10-31T10:50:15.711Z,18.30
2022-10-31T10:52:51.278Z,18.10
2022-10-31T10:55:27.227Z,18.20
2022-10-31T10:57:58.347Z,18.40
2022-10-31T11:00:28.642Z,18.50
2022-10-31T11:02:56.714Z,18.50
2022-10-31T11:05:29.210Z,18.60
2022-10-31T11:07:57.599Z,18.60
2022-10-31T11:10:24.996Z,18.80
2022-10-31T11:13:22.460Z,18.90
2022-10-31T11:15:58.379Z,18.90
2022-10-31T11:18:27.699Z,18.90
2022-10-31T11:20:56.527Z,19.00
2022-10-31T11:23:27.321Z,19.10
2022-10-31T11:25:57.067Z,19.30
2022-10-31T11:28:24.380Z,19.40
2022-10-31T11:30:55.658Z,19.60
2022-10-31T11:33:27.874Z,19.60
2022-10-31T11:35:58.098Z,19.70
2022-10-31T11:38:35.005Z,19.70
2022-10-31T11:41:11.037Z,19.90
2022-10-31T11:43:38.421Z,19.90
2022-10-31T11:46:11.017Z,20.00
2022-10-31T11:48:38.260Z,20.00
2022-10-31T11:51:06.083Z,20.10
2022-10-31T11:53:35.628Z,20.10
2022-10-31T11:56:06.116Z,20.20
2022-10-31T11:58:33.216Z,20.10
2022-10-31T12:01:00.149Z,20.20
2022-10-31T12:03:50.208Z,20.40
2022-10-31T12:06:21.890Z,20.40
2022-10-31T12:08:50.571Z,20.20
2022-10-31T12:11:39.064Z,19.80
2022-10-31T12:14:26.595Z,19.80
2022-10-31T12:16:59.349Z,20.00
2022-10-31T12:19:37.095Z,20.10
2022-10-31T12:22:11.943Z,20.00
2022-10-31T12:25:05.039Z,19.80
2022-10-31T12:27:42.250Z,19.90
2022-10-31T12:30:20.079Z,19.80
2022-10-31T12:33:12.541Z,19.80
2022-10-31T12:35:51.041Z,19.70
2022-10-31T12:38:43.795Z,19.60
2022-10-31T12:41:30.886Z,19.50
2022-10-31T12:44:07.120Z,19.40
2022-10-31T12:46:57.753Z,19.30
2022-10-31T12:49:43.297Z,19.20
2022-10-31T12:52:32.580Z,19.20
2022-10-31T12:55:12.204Z,19.30
2022-10-31T12:57:45.938Z,19.60
2022-10-31T13:00:16.909Z,19.90
2022-10-31T13:02:50.298Z,20.10
2022-10-31T13:05:23.074Z,20.10
2022-10-31T13:07:55.728Z,19.90
2022-10-31T13:10:26.631Z,19.70
2022-10-31T13:13:02.296Z,19.60
2022-10-31T13:15:33.906Z,19.50
2022-10-31T13:18:04.380Z,19.40
2022-10-31T13:20:34.555Z,19.40
2022-10-31T13:23:48.544Z,19.50
2022-10-31T13:26:11.061Z,19.60
2022-10-31T13:28:45.881Z,19.80
2022-10-31T13:31:13.412Z,19.90
2022-10-31T13:33:45.237Z,19.90
2022-10-31T13:36:25.046Z,19.70
2022-10-31T13:38:55.908Z,19.80
2022-10-31T13:41:46.783Z,19.70
2022-10-31T13:44:19.969Z,19.70
2022-10-31T13:46:47.511Z,19.60
2022-10-31T13:49:41.820Z,19.50
2022-10-31T13:52:17.279Z,19.50
2022-10-31T13:54:46.084Z,19.60
2022-10-31T13:57:23.300Z,19.60
2022-10-31T13:59:54.737Z,19.50
2022-10-31T14:02:28.100Z,19.30
2022-10-31T14:04:59.849Z,19.20
2022-10-31T14:07:29.003Z,19.10
2022-10-31T14:09:59.869Z,19.10
2022-10-31T14:12:31.355Z,19.00
2022-10-31T14:15:04.255Z,18.90
2022-10-31T14:17:39.697Z,18.90
2022-10-31T14:20:26.816Z,18.80
2022-10-31T14:22:53.851Z,18.70
2022-10-31T14:25:32.415Z,18.60
2022-10-31T14:28:01.435Z,18.60
2022-10-31T14:30:31.467Z,18.60
2022-10-31T14:33:01.980Z,18.50
2022-10-31T14:35:47.722Z,18.50
2022-10-31T14:38:29.927Z,18.40
2022-10-31T14:41:33.178Z,18.40
2022-10-31T14:44:25.035Z,18.40
2022-10-31T14:47:03.173Z,18.30
2022-10-31T14:49:43.318Z,18.30
2022-10-31T14:52:14.396Z,18.40
2022-10-31T14:54:44.948Z,18.20
2022-10-31T14:57:19.561Z,18.20
2022-10-31T14:59:50.603Z,18.10
2022-10-31T15:02:25.947Z,18.00
2022-10-31T15:04:55.000Z,17.90
2022-10-31T15:07:25.055Z,17.80
2022-10-31T15:09:59.608Z,17.70
2022-10-31T15:12:29.522Z,17.60
2022-10-31T15:14:57.203Z,17.60
2022-10-31T15:17:27.284Z,17.50
2022-10-31T15:19:54.580Z,17.50
2022-10-31T15:22:25.182Z,17.50
2022-10-31T15:24:57.132Z,17.40
2022-10-31T15:27:25.771Z,17.40
2022-10-31T15:29:55.827Z,17.30
2022-10-31T15:32:26.769Z,17.30
2022-10-31T15:34:55.215Z,17.20
2022-10-31T15:37:25.789Z,17.30
2022-10-31T15:39:53.615Z,17.20
2022-10-31T15:42:24.788Z,17.10
2022-10-31T15:44:58.785Z,17.10
2022-10-31T15:47:28.190Z,17.00
2022-10-31T15:49:56.759Z,17.00
2022-10-31T15:52:31.891Z,17.00
2022-10-31T15:55:01.709Z,16.90
2022-10-31T15:57:28.798Z,16.90
2022-10-31T15:59:56.412Z,16.80
2022-10-31T16:02:25.685Z,16.80
2022-10-31T16:04:57.377Z,16.80
2022-10-31T16:07:25.359Z,16.70
2022-10-31T16:09:55.707Z,16.60
2022-10-31T16:12:24.599Z,16.50
2022-10-31T16:14:53.428Z,16.50
2022-10-31T16:17:22.820Z,16.50
2022-10-31T16:19:56.057Z,16.50
2022-10-31T16:22:27.738Z,16.40
2022-10-31T16:25:00.091Z,16.40
2022-10-31T16:27:30.032Z,16.40
2022-10-31T16:29:58.297Z,16.30
2022-10-31T16:32:30.915Z,16.30
2022-10-31T16:35:18.909Z,16.30
2022-10-31T16:37:46.221Z,16.30
2022-10-31T16:40:14.255Z,16.30
2022-10-31T16:42:42.008Z,16.30
2022-10-31T16:45:15.662Z,16.20
2022-10-31T16:47:42.993Z,16.20
2022-10-31T16:50:16.846Z,16.20
2022-10-31T16:53:08.218Z,16.20
2022-10-31T16:55:35.843Z,16.20
2022-10-31T16:58:03.828Z,16.10
2022-10-31T17:00:31.783Z,16.10
2022-10-31T17:02:59.118Z,16.00
2022-10-31T17:05:30.669Z,16.00
2022-10-31T17:07:58.126Z,16.00
2022-10-31T17:10:26.146Z,16.00
2022-10-31T17:12:53.665Z,15.90
2022-10-31T17:15:22.623Z,15.90
2022-10-31T17:17:49.570Z,15.90
2022-10-31T17:20:20.438Z,15.90
2022-10-31T17:22:48.720Z,15.90
2022-10-31T17:25:18.233Z,15.80
2022-10-31T17:27:47.410Z,15.80
2022-10-31T17:30:15.238Z,15.90
2022-10-31T17:32:43.184Z,15.80
2022-10-31T17:35:11.116Z,15.80
2022-10-31T17:37:38.229Z,15.70
2022-10-31T17:40:07.861Z,15.70
2022-10-31T17:42:34.774Z,15.70
2022-10-31T17:45:01.787Z,15.70
2022-10-31T17:47:29.008Z,15.60
2022-10-31T17:49:55.839Z,15.60
2022-10-31T17:52:22.907Z,15.60
2022-10-31T17:54:49.909Z,15.60
2022-10-31T17:57:18.821Z,15.60
2022-10-31T17:59:45.666Z,15.60
2022-10-31T18:02:12.888Z,15.60
2022-10-31T18:04:42.708Z,15.50
2022-10-31T18:07:09.608Z,15.50
2022-10-31T18:09:36.476Z,15.40
2022-10-31T18:12:03.739Z,15.40
2022-10-31T18:14:32.336Z,15.40
2022-10-31T18:16:59.591Z,15.40
2022-10-31T18:19:26.506Z,15.40
2022-10-31T18:21:53.758Z,15.30
2022-10-31T18:24:20.635Z,15.30
2022-10-31T18:26:48.219Z,15.30
2022-10-31T18:29:15.187Z,15.30
2022-10-31T18:31:44.260Z,15.20
2022-10-31T18:34:11.086Z,15.30
2022-10-31T18:36:38.013Z,15.30
2022-10-31T18:39:04.989Z,15.30
2022-10-31T18:41:32.313Z,15.20
2022-10-31T18:44:02.285Z,15.20
2022-10-31T18:46:29.622Z,15.20
2022-10-31T18:48:57.933Z,15.20
2022-10-31T18:51:25.215Z,15.20
2022-10-31T18:53:53.015Z,15.30
2022-10-31T18:56:21.377Z,15.30
2022-10-31T18:58:48.307Z,15.40
2022-10-31T19:01:16.856Z,15.40
2022-10-31T19:03:44.103Z,15.50
2022-10-31T19:06:12.677Z,15.50
2022-10-31T19:08:39.918Z,15.50
2022-10-31T19:11:08.454Z,15.60
2022-10-31T19:13:36.180Z,15.50
2022-10-31T19:16:07.642Z,15.40
2022-10-31T19:18:34.645Z,15.40
2022-10-31T19:21:06.154Z,15.50
2022-10-31T19:23:34.459Z,15.40
2022-10-31T19:26:02.619Z,15.30
2022-10-31T19:28:30.876Z,15.30
2022-10-31T19:30:58.205Z,15.20
2022-10-31T19:33:34.898Z,15.10
2022-10-31T19:36:08.224Z,15.10
2022-10-31T19:38:37.718Z,15.00
2022-10-31T19:41:07.293Z,15.00
2022-10-31T19:43:34.330Z,15.00
2022-10-31T19:46:03.559Z,15.00
2022-10-31T19:48:31.152Z,15.00
2022-10-31T19:51:01.944Z,14.90
2022-10-31T19:53:30.324Z,14.90
2022-10-31T19:55:58.965Z,14.90
2022-10-31T19:58:26.410Z,14.80
2022-10-31T20:00:54.469Z,14.80
2022-10-31T20:03:22.685Z,14.80
2022-10-31T20:05:50.697Z,14.70
2022-10-31T20:08:19.327Z,14.80
2022-10-31T20:10:54.496Z,14.70
2022-10-31T20:13:23.758Z,14.70
2022-10-31T20:15:51.146Z,14.70
2022-10-31T20:18:18.731Z,14.70
2022-10-31T20:20:45.988Z,14.70
2022-10-31T20:23:12.854Z,14.70
2022-10-31T20:25:47.433Z,14.70
2022-10-31T20:28:14.534Z,14.60
2022-10-31T20:30:43.651Z,14.60
2022-10-31T20:33:10.506Z,14.70
2022-10-31T20:35:37.909Z,14.70
2022-10-31T20:38:05.241Z,14.60
2022-10-31T20:40:32.631Z,14.60
2022-10-31T20:43:00.435Z,14.60
2022-10-31T20:45:27.369Z,14.50
2022-10-31T20:47:56.027Z,14.50
2022-10-31T20:50:23.861Z,14.50
2022-10-31T20:52:50.932Z,14.50
2022-10-31T20:55:18.422Z,14.50
2022-10-31T20:57:45.264Z,14.50
2022-10-31T21:00:13.237Z,14.50
2022-10-31T21:02:41.798Z,14.50
2022-10-31T21:05:11.557Z,14.40
2022-10-31T21:07:39.398Z,14.40
2022-10-31T21:10:15.191Z,14.40
2022-10-31T21:12:43.198Z,14.40
2022-10-31T21:15:11.851Z,14.40
2022-10-31T21:17:38.646Z,14.40
2022-10-31T21:20:07.592Z,14.40
2022-10-31T21:22:36.181Z,14.40
2022-10-31T21:25:03.578Z,14.40
2022-10-31T21:27:31.098Z,14.40
2022-10-31T21:29:58.335Z,14.40
2022-10-31T21:32:25.296Z,14.40
2022-10-31T21:34:52.356Z,14.40
2022-10-31T21:37:19.270Z,14.40
2022-10-31T21:39:50.821Z,14.40
2022-10-31T21:42:21.357Z,14.30
2022-10-31T21:44:49.128Z,14.30
2022-10-31T21:47:16.180Z,14.30
2022-10-31T21:49:43.496Z,14.30
2022-10-31T21:52:10.668Z,14.30
2022-10-31T21:54:37.923Z,14.30
2022-10-31T21:57:06.263Z,14.30
2022-10-31T21:59:33.180Z,14.30
2022-10-31T22:02:00.905Z,14.40
2022-10-31T22:04:29.057Z,14.40
2022-10-31T22:06:55.900Z,14.40
2022-10-31T22:09:23.687Z,14.50
2022-10-31T22:11:51.023Z,14.50
2022-10-31T22:14:19.591Z,14.40
2022-10-31T22:16:46.485Z,14.40
2022-10-31T22:19:14.918Z,14.40
2022-10-31T22:21:43.255Z,14.40
2022-10-31T22:24:10.789Z,14.30
2022-10-31T22:26:38.366Z,14.30
2022-10-31T22:29:06.803Z,14.30
2022-10-31T22:31:38.627Z,14.40
2022-10-31T22:34:05.494Z,14.40
2022-10-31T22:36:32.658Z,14.50
2022-10-31T22:39:00.022Z,14.60
2022-10-31T22:41:28.585Z,14.50
2022-10-31T22:43:56.362Z,14.60
2022-10-31T22:46:25.030Z,14.70
2022-10-31T22:48:55.242Z,14.70
2022-10-31T22:51:23.942Z,14.60
2022-10-31T22:53:51.484Z,14.70
2022-10-31T22:56:20.622Z,14.70
2022-10-31T22:58:48.290Z,14.70
2022-10-31T23:01:17.249Z,14.70
2022-10-31T23:03:44.895Z,14.70
2022-10-31T23:06:15.033Z,14.80
2022-10-31T23:08:42.885Z,14.70
2022-10-31T23:11:17.287Z,14.70
2022-10-31T23:14:03.959Z,14.80
2022-10-31T23:16:31.168Z,14.80
2022-10-31T23:18:58.256Z,14.80
2022-10-31T23:21:44.156Z,14.80
2022-10-31T23:24:12.020Z,14.90
2022-10-31T23:26:57.655Z,14.80
2022-10-31T23:29:25.018Z,14.80
2022-10-31T23:31:54.479Z,14.90
2022-10-31T23:34:22.154Z,14.80
2022-10-31T23:36:52.190Z,14.80
2022-10-31T23:39:21.350Z,14.80
2022-10-31T23:41:51.767Z,14.70
2022-10-31T23:44:19.285Z,14.70
2022-10-31T23:46:46.539Z,14.60
2022-10-31T23:49:13.574Z,14.50
2022-10-31T23:51:41.266Z,14.40
2022-10-31T23:54:09.970Z,14.30
2022-10-31T23:56:36.966Z,14.20
2022-10-31T23:59:04.476Z,14.10
